Terminal Aerodrome Forecast
Issued by NWS Jackson, MS

Home | Current Version | Previous Version | Text Only | Print | Product List | Glossary On
Versions: 1 2 3 4 5 6 7 8 9 10 11 12 13
000
FTUS44 KJAN 271138
TAFMEI
TAF
KMEI 271138Z 2712/2812 00000KT 6SM BR FEW004 SCT060 BKN250
     FM271330 06004KT P6SM FEW050 FEW250
     FM271600 07009KT P6SM FEW050 FEW250
     FM280000 08003KT P6SM FEW250=

USA.gov is the U.S. government's official web portal to all federal, state and local government web resources and services.